createdAt,value
2018-03-27T00:02:13.296Z,37.72
2018-03-27T00:04:42.836Z,33.63
2018-03-27T00:07:18.052Z,41.92
2018-03-27T00:09:47.616Z,37.28
2018-03-27T00:12:17.139Z,33.83
2018-03-27T00:14:47.033Z,35.63
2018-03-27T00:17:16.913Z,34.50
2018-03-27T00:22:27.094Z,35.08
2018-03-27T00:24:56.730Z,37.80
2018-03-27T00:27:36.780Z,41.85
2018-03-27T00:30:17.236Z,39.75
2018-03-27T00:32:57.266Z,43.00
2018-03-27T00:35:39.777Z,36.03
2018-03-27T00:38:19.904Z,40.33
2018-03-27T00:40:47.740Z,31.40
2018-03-27T00:43:17.288Z,40.47
2018-03-27T00:45:47.132Z,40.05
2018-03-27T00:48:16.738Z,44.15
2018-03-27T00:50:46.571Z,41.45
2018-03-27T00:53:16.093Z,40.08
2018-03-27T00:55:46.941Z,38.83
2018-03-27T00:58:16.524Z,38.60
2018-03-27T01:00:46.072Z,36.55
2018-03-27T01:03:15.759Z,42.67
2018-03-27T01:05:46.645Z,39.13
2018-03-27T01:08:16.332Z,36.38
2018-03-27T01:10:45.871Z,39.25
2018-03-27T01:13:15.496Z,38.38
2018-03-27T01:15:45.658Z,33.25
2018-03-27T01:18:15.221Z,36.60
2018-03-27T01:20:44.781Z,36.47
2018-03-27T01:23:14.323Z,34.20
2018-03-27T01:25:43.863Z,37.33
2018-03-27T01:28:13.445Z,34.08
2018-03-27T01:30:44.253Z,35.80
2018-03-27T01:33:13.900Z,35.25
2018-03-27T01:35:43.586Z,37.08
2018-03-27T01:38:13.130Z,36.03
2018-03-27T01:40:44.129Z,31.52
2018-03-27T01:43:13.805Z,39.17
2018-03-27T01:45:45.418Z,33.45
2018-03-27T01:48:15.104Z,37.78
2018-03-27T01:50:44.616Z,31.65
2018-03-27T01:53:14.128Z,30.88
2018-03-27T01:55:49.924Z,33.45
2018-03-27T01:58:19.479Z,32.38
2018-03-27T02:00:49.081Z,30.95
2018-03-27T02:03:18.615Z,37.08
2018-03-27T02:05:48.507Z,37.33
2018-03-27T02:08:18.138Z,30.35
2018-03-27T02:10:46.546Z,34.35
2018-03-27T02:13:20.916Z,34.20
2018-03-27T02:15:55.506Z,28.73
2018-03-27T02:21:09.072Z,31.70
2018-03-27T02:23:38.834Z,35.42
2018-03-27T02:26:08.413Z,31.40
2018-03-27T02:28:37.902Z,38.10
2018-03-27T02:31:07.470Z,30.92
2018-03-27T02:33:38.459Z,30.92
2018-03-27T02:36:07.968Z,29.90
2018-03-27T02:38:37.491Z,34.95
2018-03-27T02:41:07.054Z,35.15
2018-03-27T02:43:36.636Z,30.52
2018-03-27T02:46:06.288Z,26.27
2018-03-27T02:48:37.270Z,26.02
2018-03-27T02:51:06.952Z,30.40
2018-03-27T02:53:36.542Z,27.33
2018-03-27T02:56:06.107Z,36.42
2018-03-27T02:58:37.032Z,34.72
2018-03-27T03:01:06.715Z,32.30
2018-03-27T03:03:36.362Z,29.67
2018-03-27T03:06:05.866Z,33.08
2018-03-27T03:08:36.801Z,27.52
2018-03-27T03:11:06.417Z,38.47
2018-03-27T03:13:35.978Z,35.92
2018-03-27T03:16:05.502Z,32.25
2018-03-27T03:18:35.113Z,31.37
2018-03-27T03:21:04.780Z,37.00
2018-03-27T03:23:35.689Z,34.33
2018-03-27T03:26:05.356Z,35.73
2018-03-27T03:28:34.999Z,32.03
2018-03-27T03:31:04.548Z,31.75
2018-03-27T03:33:34.120Z,31.42
2018-03-27T03:36:03.719Z,33.15
2018-03-27T03:38:34.742Z,34.95
2018-03-27T03:41:04.257Z,33.22
2018-03-27T03:43:33.830Z,35.07
2018-03-27T03:46:03.418Z,29.53
2018-03-27T03:48:33.388Z,33.67
2018-03-27T03:51:02.968Z,35.22
2018-03-27T03:53:32.569Z,28.60
2018-03-27T03:56:02.147Z,29.77
2018-03-27T03:58:31.656Z,34.80
2018-03-27T04:01:01.270Z,30.73
2018-03-27T04:03:31.223Z,35.40
2018-03-27T04:06:00.838Z,34.17
2018-03-27T04:08:30.442Z,36.93
2018-03-27T04:11:00.034Z,29.70
2018-03-27T04:13:30.004Z,34.20
2018-03-27T04:15:59.554Z,35.50
2018-03-27T04:18:29.206Z,28.10
2018-03-27T04:20:58.855Z,36.73
2018-03-27T04:23:28.796Z,31.60
2018-03-27T04:25:58.400Z,35.17
2018-03-27T04:28:28.041Z,33.67
2018-03-27T04:30:57.624Z,30.87
2018-03-27T04:33:29.494Z,36.00
2018-03-27T04:35:59.065Z,36.37
2018-03-27T04:38:28.980Z,34.93
2018-03-27T04:40:58.706Z,38.37
2018-03-27T04:43:28.525Z,33.43
2018-03-27T04:45:58.041Z,37.37
2018-03-27T04:48:27.900Z,34.83
2018-03-27T04:50:57.760Z,34.40
2018-03-27T04:53:27.311Z,35.43
2018-03-27T04:55:56.853Z,37.83
2018-03-27T04:58:26.354Z,33.67
2018-03-27T05:00:55.889Z,37.73
2018-03-27T05:03:25.537Z,31.43
2018-03-27T05:05:56.441Z,34.30
2018-03-27T05:08:26.273Z,35.67
2018-03-27T05:14:01.280Z,37.50
2018-03-27T05:16:30.962Z,37.77
2018-03-27T05:19:00.790Z,37.43
2018-03-27T05:21:30.431Z,35.60
2018-03-27T05:24:00.029Z,31.57
2018-03-27T05:26:29.807Z,40.27
2018-03-27T05:28:59.525Z,33.47
2018-03-27T05:31:29.080Z,38.03
2018-03-27T05:33:58.643Z,34.90
2018-03-27T05:36:28.326Z,34.77
2018-03-27T05:38:59.361Z,33.23
2018-03-27T05:41:28.885Z,35.23
2018-03-27T05:43:58.424Z,38.47
2018-03-27T05:46:28.528Z,44.00
2018-03-27T05:48:58.133Z,33.23
2018-03-27T05:51:28.661Z,36.13
2018-03-27T05:53:58.489Z,37.53
2018-03-27T05:56:28.045Z,35.83
2018-03-27T05:58:58.169Z,37.77
2018-03-27T06:01:28.022Z,33.37
2018-03-27T06:03:57.618Z,36.27
2018-03-27T06:06:27.321Z,33.73
2018-03-27T06:08:58.289Z,37.00
2018-03-27T06:11:28.061Z,36.83
2018-03-27T06:13:57.640Z,37.07
2018-03-27T06:16:27.420Z,34.00
2018-03-27T06:18:57.469Z,35.43
2018-03-27T06:21:27.435Z,43.97
2018-03-27T06:23:58.034Z,37.47
2018-03-27T06:26:27.630Z,33.50
2018-03-27T06:28:57.208Z,39.35
2018-03-27T06:31:27.066Z,31.85
2018-03-27T06:34:02.009Z,35.22
2018-03-27T06:36:31.648Z,34.40
2018-03-27T06:39:01.209Z,33.05
2018-03-27T06:41:31.044Z,32.83
2018-03-27T06:44:01.165Z,36.43
2018-03-27T06:46:30.806Z,34.10
2018-03-27T06:49:00.430Z,31.45
2018-03-27T06:51:31.402Z,41.60
2018-03-27T06:54:02.869Z,32.40
2018-03-27T06:56:32.635Z,32.40
2018-03-27T06:59:02.358Z,31.25
2018-03-27T07:01:31.834Z,30.02
2018-03-27T07:04:01.721Z,35.28
2018-03-27T07:06:31.271Z,31.45
2018-03-27T07:09:00.956Z,32.03
2018-03-27T07:11:30.749Z,30.83
2018-03-27T07:14:00.265Z,31.80
2018-03-27T07:16:29.996Z,25.27
2018-03-27T07:19:01.377Z,30.90
2018-03-27T07:21:30.917Z,29.37
2018-03-27T07:24:00.504Z,25.65
2018-03-27T07:26:31.544Z,26.35
2018-03-27T07:29:01.123Z,26.80
2018-03-27T07:31:30.654Z,25.20
2018-03-27T07:34:01.549Z,24.48
2018-03-27T07:36:31.210Z,21.92
2018-03-27T07:39:00.841Z,23.48
2018-03-27T07:41:30.685Z,28.15
2018-03-27T07:44:00.244Z,21.37
2018-03-27T07:46:29.789Z,21.90
2018-03-27T07:49:01.941Z,20.80
2018-03-27T07:51:31.482Z,22.35
2018-03-27T07:54:01.265Z,21.85
2018-03-27T07:56:31.418Z,20.10
2018-03-27T07:59:01.900Z,22.37
2018-03-27T08:01:31.528Z,20.48
2018-03-27T08:04:01.469Z,22.30
2018-03-27T08:06:31.283Z,20.12
2018-03-27T08:09:00.907Z,21.08
2018-03-27T08:11:30.790Z,20.52
2018-03-27T08:14:00.867Z,17.27
2018-03-27T08:16:30.505Z,20.23
2018-03-27T08:19:00.578Z,18.05
2018-03-27T08:21:30.150Z,15.23
2018-03-27T08:23:59.870Z,15.68
2018-03-27T08:26:30.036Z,14.98
2018-03-27T08:28:59.703Z,16.48
2018-03-27T08:31:29.290Z,15.35
2018-03-27T08:33:59.158Z,15.73
2018-03-27T08:36:29.018Z,16.00
2018-03-27T08:38:58.683Z,13.18
2018-03-27T08:41:28.496Z,14.80
2018-03-27T08:43:59.607Z,15.50
2018-03-27T08:46:29.462Z,16.83
2018-03-27T08:48:59.772Z,14.18
2018-03-27T08:51:29.414Z,16.25
2018-03-27T08:53:58.983Z,14.70
2018-03-27T08:56:31.099Z,15.52
2018-03-27T08:59:00.753Z,15.55
2018-03-27T09:01:30.386Z,14.50
2018-03-27T09:04:01.250Z,15.38
2018-03-27T09:06:30.984Z,14.15
2018-03-27T09:09:00.709Z,14.52
2018-03-27T09:11:30.567Z,12.48
2018-03-27T09:14:00.095Z,15.02
2018-03-27T09:16:29.935Z,13.32
2018-03-27T09:18:59.871Z,14.32
2018-03-27T09:21:29.801Z,11.98
2018-03-27T09:23:59.403Z,12.85
2018-03-27T09:26:29.446Z,10.60
2018-03-27T09:28:59.264Z,10.07
2018-03-27T09:31:28.839Z,11.18
2018-03-27T09:33:59.691Z,9.63
2018-03-27T09:36:29.313Z,10.32
2018-03-27T09:38:59.557Z,9.15
2018-03-27T09:41:29.681Z,9.32
2018-03-27T09:43:59.503Z,9.95
2018-03-27T09:46:29.176Z,8.35
2018-03-27T09:49:02.849Z,7.20
2018-03-27T09:51:32.488Z,8.82
2018-03-27T09:54:02.079Z,10.00
2018-03-27T09:56:31.717Z,6.82
2018-03-27T09:59:01.491Z,7.62
2018-03-27T10:01:31.226Z,9.77
2018-03-27T10:04:04.398Z,6.45
2018-03-27T10:06:33.986Z,6.50
2018-03-27T10:09:03.538Z,6.87
2018-03-27T10:11:33.651Z,8.52
2018-03-27T10:14:03.174Z,6.72
2018-03-27T10:16:32.849Z,9.15
2018-03-27T10:19:04.834Z,9.60
2018-03-27T10:21:34.435Z,9.48
2018-03-27T10:24:04.006Z,9.88
2018-03-27T10:26:33.981Z,7.07
2018-03-27T10:29:03.693Z,7.65
2018-03-27T10:31:33.472Z,7.32
2018-03-27T10:34:03.624Z,8.70
2018-03-27T10:36:34.260Z,7.87
2018-03-27T10:39:04.112Z,8.82
2018-03-27T10:41:33.911Z,9.68
2018-03-27T10:44:03.479Z,9.93
2018-03-27T10:46:33.151Z,10.02
2018-03-27T10:49:05.084Z,10.68
2018-03-27T10:51:34.767Z,9.75
2018-03-27T10:54:04.559Z,10.48
2018-03-27T10:56:34.690Z,10.13
2018-03-27T10:59:05.160Z,8.38
2018-03-27T11:01:34.691Z,9.23
2018-03-27T11:08:36.332Z,11.35
2018-03-27T11:11:07.471Z,11.45
2018-03-27T11:13:38.295Z,11.40
2018-03-27T11:16:10.264Z,10.00
2018-03-27T11:18:41.028Z,9.55
2018-03-27T11:21:11.679Z,10.60
2018-03-27T11:23:42.635Z,10.48
2018-03-27T11:26:13.304Z,12.60
2018-03-27T11:28:44.225Z,11.73
2018-03-27T11:31:16.322Z,11.75
2018-03-27T11:33:47.134Z,12.52
2018-03-27T11:36:18.204Z,13.13
2018-03-27T11:38:52.904Z,10.65
2018-03-27T11:41:24.388Z,9.75
2018-03-27T11:43:55.211Z,8.25
2018-03-27T11:46:27.555Z,8.82
2018-03-27T11:48:58.384Z,7.97
2018-03-27T11:51:29.274Z,8.40
2018-03-27T11:54:02.513Z,8.52
2018-03-27T11:56:33.359Z,9.70
2018-03-27T11:59:04.158Z,10.13
2018-03-27T12:01:35.412Z,10.55
2018-03-27T12:04:06.259Z,9.38
2018-03-27T12:06:37.025Z,8.90
2018-03-27T12:09:08.273Z,9.35
2018-03-27T12:11:38.999Z,8.48
2018-03-27T12:14:09.745Z,9.60
2018-03-27T12:16:40.412Z,9.35
2018-03-27T12:19:10.991Z,8.13
2018-03-27T12:21:42.090Z,8.43
2018-03-27T12:24:12.712Z,7.28
2018-03-27T12:26:43.522Z,7.57
2018-03-27T12:29:14.520Z,8.43
2018-03-27T12:31:45.405Z,7.93
2018-03-27T12:34:16.063Z,7.55
2018-03-27T12:36:47.128Z,8.98
2018-03-27T12:39:18.395Z,7.68
2018-03-27T12:41:50.428Z,6.25
2018-03-27T12:44:21.016Z,7.97
2018-03-27T12:46:51.611Z,7.05
2018-03-27T12:49:22.637Z,7.50
2018-03-27T12:51:53.273Z,7.43
2018-03-27T12:54:24.037Z,6.97
2018-03-27T12:56:57.195Z,6.68
2018-03-27T12:59:28.111Z,8.15
2018-03-27T13:01:58.709Z,7.03
2018-03-27T13:04:29.848Z,8.48
2018-03-27T13:07:00.683Z,8.05
2018-03-27T13:09:31.535Z,8.30
2018-03-27T13:12:02.666Z,7.12
2018-03-27T13:14:35.400Z,7.12
2018-03-27T13:17:06.237Z,8.13
2018-03-27T13:19:37.446Z,7.78
2018-03-27T13:22:08.215Z,6.53
2018-03-27T13:24:38.993Z,6.50
2018-03-27T13:27:09.678Z,7.32
2018-03-27T13:29:41.120Z,8.02
2018-03-27T13:32:12.163Z,7.78
2018-03-27T13:34:42.963Z,8.20
2018-03-27T13:37:13.750Z,7.75
2018-03-27T13:39:44.874Z,7.90
2018-03-27T13:42:15.467Z,7.28
2018-03-27T13:44:46.006Z,6.93
2018-03-27T13:47:17.115Z,7.05
2018-03-27T13:49:48.561Z,7.53
2018-03-27T13:52:19.359Z,6.55
2018-03-27T13:54:50.092Z,6.40
2018-03-27T13:57:20.843Z,7.28
2018-03-27T13:59:52.338Z,8.15
2018-03-27T14:02:23.228Z,6.60
2018-03-27T14:04:53.920Z,7.57
2018-03-27T14:07:25.064Z,7.18
2018-03-27T14:09:55.772Z,6.43
2018-03-27T14:12:28.742Z,7.40
2018-03-27T14:14:59.442Z,7.47
2018-03-27T14:17:30.235Z,6.87
2018-03-27T14:20:01.924Z,6.37
2018-03-27T14:22:33.039Z,6.55
2018-03-27T14:25:04.026Z,6.40
2018-03-27T14:27:35.634Z,6.65
2018-03-27T14:32:27.834Z,7.35
2018-03-27T14:34:56.547Z,6.50
2018-03-27T14:37:25.261Z,6.82
2018-03-27T14:39:54.439Z,6.35
2018-03-27T14:42:23.266Z,6.50
2018-03-27T14:44:53.162Z,6.85
2018-03-27T14:47:22.243Z,6.43
2018-03-27T14:49:54.280Z,6.97
2018-03-27T14:52:24.299Z,7.40
2018-03-27T14:54:53.984Z,6.55
2018-03-27T14:57:22.621Z,8.05
2018-03-27T14:59:51.489Z,6.85
2018-03-27T15:02:21.187Z,8.10
2018-03-27T15:04:49.892Z,6.87
2018-03-27T15:07:21.102Z,7.47
2018-03-27T15:09:50.361Z,7.18
2018-03-27T15:12:18.909Z,6.65
2018-03-27T15:14:47.562Z,7.30
2018-03-27T15:17:16.928Z,8.10
2018-03-27T15:19:45.594Z,6.60
2018-03-27T15:22:14.692Z,8.07
2018-03-27T15:24:44.742Z,7.65
2018-03-27T15:27:13.285Z,7.68
2018-03-27T15:29:42.204Z,6.75
2018-03-27T15:32:11.993Z,6.87
2018-03-27T15:34:40.649Z,5.70
2018-03-27T15:37:10.804Z,6.45
2018-03-27T15:39:39.746Z,6.97
2018-03-27T15:42:08.290Z,7.28
2018-03-27T15:44:37.134Z,7.22
2018-03-27T15:47:08.275Z,8.30
2018-03-27T15:49:37.642Z,7.25
2018-03-27T15:52:06.706Z,8.43
2018-03-27T15:54:36.902Z,7.62
2018-03-27T15:57:05.880Z,7.43
2018-03-27T15:59:34.631Z,7.35
2018-03-27T16:02:03.280Z,7.15
2018-03-27T16:04:32.077Z,8.00
2018-03-27T16:07:01.151Z,7.50
2018-03-27T16:09:30.119Z,7.32
2018-03-27T16:11:59.182Z,8.63
2018-03-27T16:14:28.358Z,7.35
2018-03-27T16:16:57.794Z,9.77
2018-03-27T16:19:26.591Z,9.00
2018-03-27T16:21:55.200Z,7.93
2018-03-27T16:24:24.008Z,8.30
2018-03-27T16:26:55.707Z,9.93
2018-03-27T16:29:24.792Z,9.10
2018-03-27T16:31:53.868Z,9.70
2018-03-27T16:34:22.602Z,7.95
2018-03-27T16:36:52.674Z,7.97
2018-03-27T16:39:21.394Z,8.07
2018-03-27T16:41:49.982Z,8.82
2018-03-27T16:44:18.755Z,9.48
2018-03-27T16:46:47.320Z,9.82
2018-03-27T16:49:17.567Z,8.75
2018-03-27T16:51:46.469Z,8.57
2018-03-27T16:54:15.254Z,9.63
2018-03-27T16:56:45.306Z,7.78
2018-03-27T16:59:14.254Z,8.85
2018-03-27T17:01:43.126Z,7.55
2018-03-27T17:04:11.784Z,9.35
2018-03-27T17:06:40.423Z,8.82
2018-03-27T17:09:09.006Z,7.95
2018-03-27T17:11:37.988Z,9.13
2018-03-27T17:14:07.473Z,7.87
2018-03-27T17:16:36.130Z,9.10
2018-03-27T17:19:04.715Z,8.63
2018-03-27T17:21:33.423Z,9.25
2018-03-27T17:24:02.078Z,8.65
2018-03-27T17:26:30.622Z,9.55
2018-03-27T17:29:00.073Z,10.30
2018-03-27T17:31:28.862Z,9.98
2018-03-27T17:33:59.139Z,10.30
2018-03-27T17:36:27.951Z,10.20
2018-03-27T17:38:56.663Z,10.13
2018-03-27T17:41:25.282Z,10.13
2018-03-27T17:43:53.940Z,11.98
2018-03-27T17:46:22.575Z,9.90
2018-03-27T17:48:51.592Z,9.90
2018-03-27T17:51:20.182Z,10.52
2018-03-27T17:53:48.863Z,9.27
2018-03-27T17:56:17.902Z,12.73
2018-03-27T17:58:47.780Z,11.20
2018-03-27T18:01:16.439Z,12.32
2018-03-27T18:03:45.384Z,11.93
2018-03-27T18:06:14.093Z,11.77
2018-03-27T18:08:42.857Z,13.20
2018-03-27T18:11:11.586Z,11.40
2018-03-27T18:13:40.725Z,11.63
2018-03-27T18:16:09.602Z,13.57
2018-03-27T18:18:38.338Z,13.13
2018-03-27T18:21:06.964Z,13.35
2018-03-27T18:23:37.880Z,13.40
2018-03-27T18:26:06.572Z,12.02
2018-03-27T18:28:35.182Z,12.02
2018-03-27T18:31:04.578Z,11.07
2018-03-27T18:33:33.594Z,12.05
2018-03-27T18:36:02.346Z,13.30
2018-03-27T18:38:30.966Z,10.93
2018-03-27T18:40:59.925Z,10.65
2018-03-27T18:43:28.470Z,11.70
2018-03-27T18:45:57.242Z,11.43
2018-03-27T18:48:25.941Z,12.60
2018-03-27T18:50:54.875Z,10.82
2018-03-27T18:53:23.635Z,11.27
2018-03-27T18:55:52.915Z,10.95
2018-03-27T18:58:22.268Z,11.40
2018-03-27T19:00:51.478Z,13.15
2018-03-27T19:03:20.399Z,12.98
2018-03-27T19:05:49.254Z,11.02
2018-03-27T19:08:17.948Z,12.10
2018-03-27T19:10:48.883Z,10.98
2018-03-27T19:13:17.467Z,14.55
2018-03-27T19:15:46.009Z,11.07
2018-03-27T19:18:14.741Z,12.35
2018-03-27T19:20:44.047Z,13.95
2018-03-27T19:23:14.312Z,13.35
2018-03-27T19:25:43.346Z,14.43
2018-03-27T19:28:11.976Z,10.77
2018-03-27T19:30:40.504Z,11.48
2018-03-27T19:33:09.305Z,9.60
2018-03-27T19:35:38.257Z,12.18
2018-03-27T19:38:08.112Z,12.70
2018-03-27T19:40:37.263Z,10.90
2018-03-27T19:43:05.982Z,9.27
2018-03-27T19:45:35.571Z,11.85
2018-03-27T19:48:05.010Z,10.82
2018-03-27T19:50:34.426Z,11.00
2018-03-27T19:53:04.241Z,12.10
2018-03-27T19:55:33.214Z,11.75
2018-03-27T19:58:02.676Z,13.45
2018-03-27T20:00:32.106Z,15.23
2018-03-27T20:03:02.160Z,12.75
2018-03-27T20:05:30.752Z,13.75
2018-03-27T20:07:59.709Z,11.70
2018-03-27T20:10:28.325Z,12.10
2018-03-27T20:12:57.045Z,11.95
2018-03-27T20:15:26.351Z,13.95
2018-03-27T20:17:55.325Z,12.05
2018-03-27T20:20:24.034Z,14.05
2018-03-27T20:22:53.895Z,12.15
2018-03-27T20:25:22.730Z,11.90
2018-03-27T20:27:51.399Z,12.10
2018-03-27T20:30:20.204Z,13.50
2018-03-27T20:32:49.313Z,14.35
2018-03-27T20:35:18.032Z,11.40
2018-03-27T20:37:46.792Z,11.80
2018-03-27T20:40:15.476Z,16.77
2018-03-27T20:42:44.495Z,12.90
2018-03-27T20:45:13.208Z,14.10
2018-03-27T20:47:42.223Z,15.15
2018-03-27T20:50:10.841Z,12.35
2018-03-27T20:52:39.727Z,14.32
2018-03-27T20:55:09.689Z,14.77
2018-03-27T20:57:38.209Z,14.77
2018-03-27T21:00:07.796Z,14.23
2018-03-27T21:02:36.494Z,12.00
2018-03-27T21:05:06.327Z,12.98
2018-03-27T21:07:35.318Z,12.73
2018-03-27T21:10:04.118Z,13.65
2018-03-27T21:12:33.331Z,15.45
2018-03-27T21:15:01.924Z,14.52
2018-03-27T21:17:30.533Z,15.77
2018-03-27T21:19:59.168Z,14.40
2018-03-27T21:22:29.034Z,14.82
2018-03-27T21:24:58.010Z,16.27
2018-03-27T21:27:26.626Z,14.18
2018-03-27T21:29:55.431Z,13.75
2018-03-27T21:32:24.951Z,14.65
2018-03-27T21:34:54.635Z,12.65
2018-03-27T21:37:23.570Z,14.95
2018-03-27T21:39:52.657Z,12.37
2018-03-27T21:42:21.277Z,11.90
2018-03-27T21:44:50.241Z,12.48
2018-03-27T21:47:19.041Z,17.10
2018-03-27T21:49:51.939Z,13.82
2018-03-27T21:52:20.506Z,13.50
2018-03-27T21:54:49.148Z,14.85
2018-03-27T21:57:17.925Z,12.95
2018-03-27T21:59:46.537Z,14.63
2018-03-27T22:02:15.515Z,14.05
2018-03-27T22:04:49.185Z,15.10
2018-03-27T22:07:18.725Z,12.23
2018-03-27T22:09:47.266Z,14.45
2018-03-27T22:12:16.769Z,13.90
2018-03-27T22:14:46.773Z,13.18
2018-03-27T22:17:15.430Z,15.57
2018-03-27T22:19:44.305Z,11.95
2018-03-27T22:22:13.169Z,12.43
2018-03-27T22:24:41.821Z,13.52
2018-03-27T22:27:10.430Z,12.48
2018-03-27T22:29:39.442Z,11.98
2018-03-27T22:32:08.239Z,12.82
2018-03-27T22:34:37.122Z,14.40
2018-03-27T22:37:06.048Z,11.82
2018-03-27T22:39:36.943Z,11.88
2018-03-27T22:42:05.592Z,9.98
2018-03-27T22:44:34.215Z,12.10
2018-03-27T22:47:02.985Z,11.10
2018-03-27T22:49:33.120Z,12.10
2018-03-27T22:52:01.798Z,10.68
2018-03-27T22:54:30.499Z,11.52
2018-03-27T22:56:59.378Z,10.68
2018-03-27T22:59:28.308Z,9.70
2018-03-27T23:01:56.931Z,10.20
2018-03-27T23:04:25.611Z,9.88
2018-03-27T23:06:54.377Z,9.82
2018-03-27T23:09:23.653Z,11.73
2018-03-27T23:11:52.258Z,11.02
2018-03-27T23:14:20.852Z,10.43
2018-03-27T23:16:49.469Z,10.77
2018-03-27T23:19:18.147Z,9.80
2018-03-27T23:21:46.774Z,10.50
2018-03-27T23:24:15.820Z,8.63
2018-03-27T23:26:44.898Z,9.68
2018-03-27T23:29:13.604Z,9.50
2018-03-27T23:31:44.500Z,9.23
2018-03-27T23:34:18.576Z,9.27
2018-03-27T23:36:47.612Z,8.95
2018-03-27T23:39:16.534Z,10.50
2018-03-27T23:41:45.190Z,10.25
2018-03-27T23:44:14.497Z,7.55
2018-03-27T23:46:43.110Z,9.18
2018-03-27T23:49:12.341Z,7.97
2018-03-27T23:51:41.797Z,8.23
2018-03-27T23:54:13.988Z,8.13
2018-03-27T23:56:44.688Z,9.57
2018-03-27T23:59:13.530Z,9.13
